Time;durP1;ratioP1;P1;durP2;ratioP2;P2;SDS_P1;SDS_P2;PMS_P1;PMS_P2;Temp;Humidity;BMP_temperature;BMP_pressure;BME280_temperature;BME280_humidity;BME280_pressure;Samples;Min_cycle;Max_cycle;Signal;HPM_P1;HPM_P2
2023/04/27 00:01:11;;;;;;;29.25;18.73;;;7.40;50.10;;;;;;5066674;27;114494;-87
2023/04/27 00:03:38;;;;;;;30.40;19.17;;;7.40;50.30;;;;;;5051974;27;115388;-86
2023/04/27 00:06:07;;;;;;;26.88;17.40;;;7.30;50.40;;;;;;5048102;27;115387;-86
2023/04/27 00:08:34;;;;;;;26.67;18.23;;;7.30;50.60;;;;;;5047080;27;114412;-86
2023/04/27 00:11:01;;;;;;;27.23;18.17;;;7.30;50.80;;;;;;5066931;27;114536;-85
2023/04/27 00:13:28;;;;;;;27.85;18.67;;;7.40;50.90;;;;;;5046404;27;114917;-85
2023/04/27 00:15:55;;;;;;;30.38;19.00;;;7.50;51.00;;;;;;5047954;27;114756;-86
2023/04/27 00:18:22;;;;;;;29.15;19.05;;;7.40;51.10;;;;;;5064592;27;114416;-86
2023/04/27 00:20:49;;;;;;;28.42;18.92;;;7.40;50.70;;;;;;5046740;27;114354;-84
2023/04/27 00:23:17;;;;;;;27.52;17.77;;;7.40;50.60;;;;;;5065733;27;114867;-86
2023/04/27 00:25:44;;;;;;;27.85;17.55;;;7.40;50.60;;;;;;5049204;27;114993;-86
2023/04/27 00:28:11;;;;;;;27.67;16.15;;;7.40;50.70;;;;;;5063267;27;114607;-85
2023/04/27 00:30:38;;;;;;;24.27;17.25;;;7.40;50.60;;;;;;5046213;27;114286;-85
2023/04/27 00:33:05;;;;;;;25.73;17.45;;;7.30;51.10;;;;;;5047304;27;118163;-86
2023/04/27 00:35:33;;;;;;;27.20;17.55;;;7.30;50.80;;;;;;5053297;27;114587;-86
2023/04/27 00:38:00;;;;;;;26.25;16.85;;;7.40;50.80;;;;;;5066348;27;114519;-84
2023/04/27 00:40:27;;;;;;;28.13;16.75;;;7.30;50.90;;;;;;5066116;27;114494;-84
2023/04/27 00:42:55;;;;;;;22.55;14.48;;;7.40;50.90;;;;;;5046843;27;117040;-84
2023/04/27 00:45:22;;;;;;;24.30;14.73;;;7.40;50.90;;;;;;5065831;27;114548;-83
2023/04/27 00:47:49;;;;;;;25.27;15.80;;;7.40;50.80;;;;;;5049247;27;114622;-84
2023/04/27 00:50:19;;;;;;;23.23;17.05;;;7.40;50.90;;;;;;5064213;27;114273;-85
2023/04/27 00:52:46;;;;;;;24.42;15.88;;;7.40;50.90;;;;;;5044716;27;114889;-86
2023/04/27 00:55:14;;;;;;;25.77;17.52;;;7.40;50.90;;;;;;5053652;27;114682;-85
2023/04/27 00:57:41;;;;;;;28.05;17.65;;;7.40;51.00;;;;;;5060646;27;114607;-86
2023/04/27 01:00:10;;;;;;;29.63;16.58;;;7.40;50.90;;;;;;5087040;27;114383;-84
2023/04/27 01:02:38;;;;;;;25.15;15.68;;;7.40;51.00;;;;;;5034538;27;118666;-85
2023/04/27 01:05:07;;;;;;;26.45;16.42;;;7.40;51.20;;;;;;5077728;27;115100;-85
2023/04/27 01:07:38;;;;;;;24.27;15.23;;;7.40;51.00;;;;;;5069011;27;114508;-85
2023/04/27 01:10:07;;;;;;;26.67;14.93;;;7.40;51.30;;;;;;5085689;27;114432;-85
2023/04/27 01:12:35;;;;;;;24.85;13.75;;;7.30;51.80;;;;;;5028132;27;115901;-84
2023/04/27 01:15:05;;;;;;;20.85;13.50;;;7.40;51.50;;;;;;5065834;27;115056;-84
2023/04/27 01:17:33;;;;;;;20.30;12.55;;;7.30;51.50;;;;;;5014707;27;114520;-85
2023/04/27 01:20:10;;;;;;;22.83;13.32;;;7.30;51.50;;;;;;5016594;27;114608;-85
2023/04/27 01:22:38;;;;;;;20.42;11.52;;;7.20;51.40;;;;;;5051457;27;114373;-85
2023/04/27 01:25:06;;;;;;;24.27;12.75;;;7.30;51.50;;;;;;5067679;27;117599;-85
2023/04/27 01:27:34;;;;;;;20.13;11.75;;;7.20;51.80;;;;;;5043867;27;114391;-85
2023/04/27 01:30:03;;;;;;;23.35;12.40;;;7.20;51.90;;;;;;5047600;27;114351;-85
2023/04/27 01:32:30;;;;;;;18.88;11.43;;;7.20;51.90;;;;;;5046754;27;115345;-84
2023/04/27 01:34:57;;;;;;;19.55;11.98;;;7.20;52.00;;;;;;5032473;27;114666;-84
2023/04/27 01:37:25;;;;;;;22.15;12.05;;;7.20;52.00;;;;;;5023996;27;114318;-85
2023/04/27 01:39:52;;;;;;;22.50;12.07;;;7.20;52.20;;;;;;5030473;27;114638;-85
2023/04/27 01:42:19;;;;;;;23.60;14.07;;;7.20;52.20;;;;;;5030193;27;118348;-85
2023/04/27 01:44:47;;;;;;;25.52;17.67;;;7.20;52.20;;;;;;5055197;27;115086;-83
2023/04/27 01:47:16;;;;;;;25.75;17.65;;;7.10;52.30;;;;;;5084722;27;114291;-85
2023/04/27 01:49:51;;;;;;;22.58;15.10;;;7.10;52.40;;;;;;5067525;27;114547;-82
2023/04/27 01:52:18;;;;;;;25.67;15.00;;;7.10;52.40;;;;;;5084469;27;115777;-84
2023/04/27 01:54:45;;;;;;;26.35;16.02;;;7.00;52.40;;;;;;5084821;27;115768;-83
2023/04/27 01:57:13;;;;;;;26.10;14.93;;;7.00;52.60;;;;;;5067513;27;114344;-84
2023/04/27 01:59:40;;;;;;;27.90;15.05;;;7.00;52.90;;;;;;5067623;27;114758;-83
2023/04/27 02:02:07;;;;;;;24.05;14.88;;;7.00;53.00;;;;;;5066364;27;115293;-84
2023/04/27 02:04:36;;;;;;;22.35;14.60;;;6.90;53.00;;;;;;5083432;27;115123;-83
2023/04/27 02:07:04;;;;;;;26.05;16.00;;;6.90;53.20;;;;;;5067122;27;115166;-83
2023/04/27 02:09:31;;;;;;;24.65;15.15;;;6.90;53.20;;;;;;5066702;27;114353;-83
2023/04/27 02:11:58;;;;;;;24.35;15.95;;;6.90;53.20;;;;;;5032447;27;118548;-83
2023/04/27 02:14:25;;;;;;;26.10;16.08;;;6.90;53.20;;;;;;5083561;27;114656;-84
2023/04/27 02:16:52;;;;;;;28.63;16.20;;;6.90;52.90;;;;;;5067253;27;114465;-85
2023/04/27 02:19:22;;;;;;;24.73;15.95;;;6.90;52.80;;;;;;5084080;27;114765;-85
2023/04/27 02:21:49;;;;;;;29.13;16.38;;;6.90;52.80;;;;;;5049455;27;115537;-84
2023/04/27 02:24:16;;;;;;;25.75;16.40;;;6.90;53.00;;;;;;5062527;27;114684;-84
2023/04/27 02:26:44;;;;;;;26.75;15.82;;;6.90;53.10;;;;;;5031399;27;114496;-84
2023/04/27 02:29:11;;;;;;;23.05;15.52;;;6.90;53.10;;;;;;5043363;27;114522;-85
2023/04/27 02:31:40;;;;;;;25.08;15.70;;;6.90;53.20;;;;;;5063083;27;114855;-87
2023/04/27 02:34:07;;;;;;;25.20;15.68;;;6.90;53.30;;;;;;5045752;27;114644;-84
2023/04/27 02:36:34;;;;;;;25.10;14.65;;;6.90;53.30;;;;;;5030180;27;114268;-83
2023/04/27 02:39:02;;;;;;;23.35;14.55;;;6.80;53.50;;;;;;5050754;27;114640;-83
2023/04/27 02:41:32;;;;;;;24.60;15.27;;;6.90;53.50;;;;;;5025591;27;115282;-84
2023/04/27 02:44:00;;;;;;;25.65;14.63;;;6.90;53.80;;;;;;5061243;27;114663;-84
2023/04/27 02:46:27;;;;;;;22.60;13.88;;;6.80;53.40;;;;;;5076480;27;114255;-85
2023/04/27 02:48:55;;;;;;;20.75;13.95;;;6.80;53.40;;;;;;5084764;27;114529;-85
2023/04/27 02:51:22;;;;;;;22.98;13.05;;;6.80;53.50;;;;;;5065693;27;114955;-83
2023/04/27 02:53:52;;;;;;;19.80;11.50;;;6.80;53.60;;;;;;5065784;27;115027;-83
2023/04/27 02:56:20;;;;;;;18.02;10.82;;;6.80;53.60;;;;;;5065966;27;114374;-83
2023/04/27 02:58:48;;;;;;;22.88;11.77;;;6.80;53.50;;;;;;5083908;27;114366;-84
2023/04/27 03:01:18;;;;;;;20.05;10.80;;;6.80;53.60;;;;;;5083913;27;115766;-85
2023/04/27 03:03:48;;;;;;;23.60;11.45;;;6.80;53.50;;;;;;5083056;27;115222;-85
2023/04/27 03:06:16;;;;;;;22.20;12.13;;;6.80;53.70;;;;;;5051093;27;114562;-84
2023/04/27 03:08:43;;;;;;;23.98;13.40;;;6.70;53.70;;;;;;5083720;27;114548;-84
2023/04/27 03:11:11;;;;;;;21.65;13.85;;;6.70;53.80;;;;;;5065394;27;118322;-84
2023/04/27 03:13:42;;;;;;;20.92;13.82;;;6.70;53.70;;;;;;5083717;27;114520;-85
2023/04/27 03:16:10;;;;;;;25.05;13.07;;;6.70;53.60;;;;;;5085172;27;114565;-85
2023/04/27 03:18:38;;;;;;;18.92;13.38;;;6.70;53.70;;;;;;5083192;27;114520;-85
2023/04/27 03:21:09;;;;;;;22.45;14.00;;;6.70;53.70;;;;;;5063833;27;114535;-84
2023/04/27 03:23:36;;;;;;;24.25;13.85;;;6.70;54.00;;;;;;5051478;27;114762;-85
2023/04/27 03:26:08;;;;;;;25.40;15.27;;;6.70;54.10;;;;;;5050408;27;114512;-85
2023/04/27 03:28:35;;;;;;;21.33;13.93;;;6.70;54.00;;;;;;5066461;27;114425;-84
2023/04/27 03:31:06;;;;;;;24.02;13.93;;;6.70;54.10;;;;;;5083873;27;115135;-85
2023/04/27 03:33:34;;;;;;;22.55;13.20;;;6.70;54.10;;;;;;5082523;27;116883;-85
2023/04/27 03:36:04;;;;;;;24.90;14.45;;;6.70;54.10;;;;;;5086301;27;115177;-85
2023/04/27 03:38:32;;;;;;;21.17;14.40;;;6.70;54.00;;;;;;5087609;27;116640;-84
2023/04/27 03:40:59;;;;;;;23.45;14.13;;;6.70;53.90;;;;;;5085101;27;117822;-84
2023/04/27 03:43:27;;;;;;;24.17;15.70;;;6.70;54.10;;;;;;5085591;27;115046;-85
2023/04/27 03:45:55;;;;;;;27.33;14.98;;;6.70;54.30;;;;;;5068762;27;118559;-83
2023/04/27 03:48:22;;;;;;;26.73;15.25;;;6.70;54.10;;;;;;5086401;27;114716;-84
2023/04/27 03:50:55;;;;;;;28.60;15.88;;;6.70;54.20;;;;;;5037193;27;117278;-84
2023/04/27 03:53:22;;;;;;;31.15;18.25;;;6.70;54.20;;;;;;5084492;27;116602;-84
2023/04/27 03:55:51;;;;;;;28.80;16.38;;;6.70;54.10;;;;;;5069343;27;114218;-83
2023/04/27 03:58:18;;;;;;;25.85;14.93;;;6.70;54.20;;;;;;5084210;27;115595;-83
2023/04/27 04:01:03;;;;;;;25.35;15.20;;;6.70;54.30;;;;;;5079395;27;114951;-82
2023/04/27 04:03:31;;;;;;;25.95;14.80;;;6.70;54.00;;;;;;5085229;27;115079;-83
2023/04/27 04:05:58;;;;;;;26.30;14.05;;;6.70;54.00;;;;;;5087292;27;114589;-83
2023/04/27 04:08:26;;;;;;;22.92;13.85;;;6.70;54.00;;;;;;5085532;27;114396;-83
2023/04/27 04:10:55;;;;;;;23.80;15.27;;;6.70;54.10;;;;;;5084578;27;115873;-83
2023/04/27 04:13:23;;;;;;;24.73;14.23;;;6.70;53.70;;;;;;5051150;27;114611;-81
2023/04/27 04:16:06;;;;;;;22.35;13.63;;;6.70;53.70;;;;;;5085497;27;117223;-83
2023/04/27 04:18:34;;;;;;;21.77;14.00;;;6.80;53.50;;;;;;5068381;27;114953;-83
2023/04/27 04:21:01;;;;;;;23.52;14.55;;;6.70;53.60;;;;;;5067106;27;115025;-82
2023/04/27 04:23:29;;;;;;;26.88;14.50;;;6.70;53.60;;;;;;5084783;27;114775;-83
2023/04/27 04:25:57;;;;;;;30.40;15.52;;;6.70;53.60;;;;;;5077412;27;114572;-83
2023/04/27 04:28:29;;;;;;;36.40;18.85;;;6.70;53.70;;;;;;5052892;27;115193;-84
2023/04/27 04:31:00;;;;;;;39.53;18.77;;;6.70;53.30;;;;;;5072508;27;117112;-84
2023/04/27 04:33:27;;;;;;;48.88;19.27;;;6.70;53.40;;;;;;5084492;27;115047;-83
2023/04/27 04:35:54;;;;;;;53.35;21.77;;;6.70;53.70;;;;;;5085179;27;114607;-83
2023/04/27 04:38:22;;;;;;;75.63;27.10;;;6.70;53.70;;;;;;5085150;27;119556;-83
2023/04/27 04:40:51;;;;;;;54.60;21.52;;;6.80;53.50;;;;;;5067512;27;114793;-83
2023/04/27 04:43:18;;;;;;;75.95;26.30;;;6.80;53.80;;;;;;5084812;27;115824;-84
2023/04/27 04:45:46;;;;;;;59.28;22.48;;;6.80;54.00;;;;;;5084555;27;114458;-84
2023/04/27 04:48:15;;;;;;;62.65;21.90;;;6.80;53.70;;;;;;5068024;27;114615;-82
2023/04/27 04:50:42;;;;;;;69.28;20.58;;;6.90;53.70;;;;;;5055421;27;115374;-84
2023/04/27 04:53:09;;;;;;;65.00;20.35;;;6.90;53.60;;;;;;5046786;27;115807;-83
2023/04/27 04:55:38;;;;;;;48.58;18.48;;;6.90;53.70;;;;;;5047485;27;114344;-84
2023/04/27 04:58:07;;;;;;;50.10;18.67;;;7.00;53.50;;;;;;5067718;27;114316;-84
2023/04/27 05:00:35;;;;;;;39.03;17.05;;;7.00;53.60;;;;;;5057601;27;114892;-84
2023/04/27 05:03:06;;;;;;;31.73;15.88;;;7.00;53.50;;;;;;5049784;27;114617;-85
2023/04/27 05:05:33;;;;;;;30.65;14.00;;;7.00;53.50;;;;;;5055854;27;115533;-85
2023/04/27 05:08:01;;;;;;;26.42;14.20;;;7.10;53.60;;;;;;5067788;27;114558;-84
2023/04/27 05:10:28;;;;;;;20.85;13.50;;;7.10;53.40;;;;;;5064433;27;115526;-84
2023/04/27 05:12:55;;;;;;;25.80;13.02;;;7.10;53.50;;;;;;5056218;27;114687;-84
2023/04/27 05:15:23;;;;;;;21.98;12.88;;;7.10;53.60;;;;;;5081900;27;114323;-84
2023/04/27 05:17:53;;;;;;;27.92;14.00;;;7.20;53.40;;;;;;5085722;27;114592;-85
2023/04/27 05:20:20;;;;;;;23.70;12.32;;;7.20;53.50;;;;;;5083366;27;115492;-84
2023/04/27 05:22:47;;;;;;;21.60;12.25;;;7.20;53.20;;;;;;5065300;27;114789;-84
2023/04/27 05:25:14;;;;;;;18.73;11.15;;;7.20;53.20;;;;;;5066118;27;115500;-85
2023/04/27 05:27:42;;;;;;;23.83;11.85;;;7.30;53.10;;;;;;5074660;27;114611;-84
2023/04/27 05:30:10;;;;;;;21.15;12.02;;;7.30;52.80;;;;;;5064568;27;114864;-84
2023/04/27 05:32:40;;;;;;;19.85;11.88;;;7.40;53.00;;;;;;5064073;27;115914;-85
2023/04/27 05:35:32;;;;;;;27.10;12.10;;;7.50;52.80;;;;;;5064652;27;114716;-85
2023/04/27 05:37:58;;;;;;;26.30;12.32;;;7.50;52.90;;;;;;5063674;27;114602;-84
2023/04/27 05:40:25;;;;;;;24.98;11.80;;;7.60;52.80;;;;;;5057038;27;114826;-85
2023/04/27 05:42:55;;;;;;;22.30;11.70;;;7.60;52.90;;;;;;5055248;27;114675;-85
2023/04/27 05:45:22;;;;;;;23.52;13.60;;;7.60;52.40;;;;;;5043449;27;119916;-85
2023/04/27 05:47:49;;;;;;;20.00;11.85;;;7.70;53.80;;;;;;5043600;27;114512;-84
2023/04/27 05:50:17;;;;;;;20.85;12.35;;;7.70;54.70;;;;;;5061066;27;115115;-84
2023/04/27 05:52:45;;;;;;;27.50;11.70;;;7.80;53.70;;;;;;5066851;27;114914;-86
2023/04/27 05:55:12;;;;;;;24.25;12.50;;;7.80;53.40;;;;;;5043594;27;114476;-84
2023/04/27 05:57:40;;;;;;;22.27;11.80;;;7.90;53.20;;;;;;5065652;27;118230;-84
2023/04/27 06:00:11;;;;;;;21.23;12.15;;;7.90;53.80;;;;;;5026217;27;118283;-87
2023/04/27 06:02:39;;;;;;;15.32;9.77;;;8.00;53.40;;;;;;5052897;27;115608;-85
2023/04/27 06:05:06;;;;;;;17.45;9.88;;;8.10;52.50;;;;;;5042930;27;115877;-83
2023/04/27 06:07:33;;;;;;;19.65;9.82;;;8.20;52.30;;;;;;5026562;27;114657;-83
2023/04/27 06:10:02;;;;;;;18.52;8.80;;;8.20;51.90;;;;;;5043720;27;118604;-84
2023/04/27 06:12:29;;;;;;;16.73;9.70;;;8.40;51.30;;;;;;5042777;27;114864;-86
2023/04/27 06:14:56;;;;;;;17.65;9.05;;;8.40;51.20;;;;;;5057465;27;114696;-85
2023/04/27 06:17:24;;;;;;;14.82;9.00;;;8.50;51.00;;;;;;5039268;27;114651;-85
2023/04/27 06:19:53;;;;;;;20.05;8.65;;;8.60;50.90;;;;;;5029138;27;118607;-84
2023/04/27 06:22:38;;;;;;;14.63;9.02;;;8.60;50.80;;;;;;5063177;27;114430;-84
2023/04/27 06:25:06;;;;;;;12.73;8.02;;;8.70;50.40;;;;;;5057801;27;114633;-84
2023/04/27 06:27:34;;;;;;;15.80;7.95;;;8.80;50.20;;;;;;5057964;27;114862;-84
2023/04/27 06:30:01;;;;;;;14.15;8.55;;;8.90;50.00;;;;;;5044711;27;114921;-84
2023/04/27 06:32:29;;;;;;;11.25;6.57;;;9.00;49.70;;;;;;5063239;27;114985;-85
2023/04/27 06:34:56;;;;;;;13.02;7.43;;;9.10;49.20;;;;;;5063483;27;114522;-85
2023/04/27 06:37:24;;;;;;;12.93;7.25;;;9.10;49.00;;;;;;5053846;27;114632;-85
2023/04/27 06:39:51;;;;;;;13.45;7.15;;;9.20;48.90;;;;;;5060896;27;114853;-85
2023/04/27 06:42:18;;;;;;;12.73;8.00;;;9.20;48.50;;;;;;5041704;27;115133;-84
2023/04/27 06:44:46;;;;;;;15.85;8.48;;;9.30;48.30;;;;;;5040765;27;114600;-85
2023/04/27 06:47:13;;;;;;;13.55;7.50;;;9.30;47.80;;;;;;5057607;27;114602;-85
2023/04/27 06:49:40;;;;;;;10.68;6.60;;;9.30;47.80;;;;;;5038471;27;115091;-85
2023/04/27 06:52:07;;;;;;;10.27;5.60;;;9.30;47.70;;;;;;5039659;27;117304;-84
2023/04/27 06:54:35;;;;;;;11.60;5.20;;;9.40;47.40;;;;;;5070827;27;114721;-84
2023/04/27 06:57:02;;;;;;;9.07;4.32;;;9.50;46.80;;;;;;5055511;27;116395;-85
2023/04/27 06:59:29;;;;;;;7.22;4.45;;;9.60;46.20;;;;;;5062317;27;116682;-84
2023/04/27 07:01:57;;;;;;;13.63;5.03;;;9.70;45.60;;;;;;5042116;27;115935;-83
2023/04/27 07:04:24;;;;;;;8.43;4.47;;;9.70;45.00;;;;;;5062320;27;114567;-83
2023/04/27 07:06:52;;;;;;;10.05;4.80;;;9.70;44.70;;;;;;5061476;27;115757;-84
2023/04/27 07:09:20;;;;;;;8.80;4.47;;;9.70;44.60;;;;;;5056237;27;114953;-83
2023/04/27 07:11:52;;;;;;;9.45;4.70;;;9.70;44.60;;;;;;5062274;27;117548;-83
2023/04/27 07:14:19;;;;;;;11.93;5.03;;;9.70;44.70;;;;;;5068038;27;114672;-83
2023/04/27 07:16:46;;;;;;;11.25;5.32;;;9.70;44.30;;;;;;5065606;27;114624;-83
2023/04/27 07:19:13;;;;;;;10.40;4.78;;;9.70;44.10;;;;;;5061662;27;116373;-83
2023/04/27 07:21:41;;;;;;;11.00;5.70;;;9.80;44.50;;;;;;5065991;27;114597;-83
2023/04/27 07:24:08;;;;;;;10.52;4.75;;;10.00;43.90;;;;;;5042104;27;114581;-85
2023/04/27 07:26:36;;;;;;;8.98;4.70;;;10.10;44.10;;;;;;5067017;27;114531;-88
2023/04/27 07:29:03;;;;;;;8.25;4.43;;;10.30;43.60;;;;;;5069845;27;114802;-85
2023/04/27 07:31:45;;;;;;;8.90;4.57;;;10.50;43.60;;;;;;5062827;27;114745;-84
2023/04/27 07:34:12;;;;;;;7.93;4.22;;;10.70;42.20;;;;;;5024537;27;114635;-85
2023/04/27 07:36:39;;;;;;;15.18;4.20;;;10.80;42.30;;;;;;5030055;27;114661;-85
2023/04/27 07:39:07;;;;;;;10.35;4.32;;;11.00;41.70;;;;;;5045700;27;117324;-84
2023/04/27 07:41:38;;;;;;;8.75;3.28;;;11.00;41.00;;;;;;5042966;27;119788;-85
2023/04/27 07:44:08;;;;;;;11.60;4.03;;;11.00;40.00;;;;;;5031946;27;114773;-85
2023/04/27 07:46:37;;;;;;;9.48;3.58;;;11.00;39.80;;;;;;5060309;27;114434;-85
2023/04/27 07:49:05;;;;;;;7.72;3.40;;;11.00;40.00;;;;;;5045760;27;115877;-85
2023/04/27 07:51:33;;;;;;;10.43;3.30;;;11.10;40.10;;;;;;5059739;27;114776;-85
2023/04/27 07:54:01;;;;;;;8.50;3.55;;;11.10;39.70;;;;;;5046218;27;114523;-85
2023/04/27 07:56:28;;;;;;;9.52;3.75;;;11.00;39.70;;;;;;5039927;27;114591;-86
2023/04/27 07:58:55;;;;;;;9.30;4.00;;;10.90;39.80;;;;;;5013402;27;116709;-85
2023/04/27 08:01:47;;;;;;;7.78;3.80;;;10.90;39.90;;;;;;5065132;27;116915;-83
2023/04/27 08:04:32;;;;;;;8.50;4.47;;;10.80;40.00;;;;;;5049856;27;114311;-82
2023/04/27 08:07:00;;;;;;;8.73;4.20;;;10.80;39.60;;;;;;5043956;27;116185;-84
2023/04/27 08:09:31;;;;;;;9.18;4.78;;;10.70;39.70;;;;;;5064861;27;114966;-81
2023/04/27 08:11:59;;;;;;;9.85;4.57;;;10.70;40.10;;;;;;5064732;27;116147;-81
2023/04/27 08:14:26;;;;;;;8.77;5.28;;;10.60;40.10;;;;;;5064673;27;116201;-82
2023/04/27 08:16:53;;;;;;;9.13;5.18;;;10.60;39.90;;;;;;5062060;27;114651;-82
2023/04/27 08:19:23;;;;;;;11.43;5.30;;;10.50;40.10;;;;;;5059146;27;114904;-82
2023/04/27 08:21:50;;;;;;;9.25;4.90;;;10.60;39.90;;;;;;5064423;27;114421;-82
2023/04/27 08:24:18;;;;;;;12.98;5.00;;;10.70;39.70;;;;;;5065307;27;114332;-82
2023/04/27 08:26:45;;;;;;;11.25;4.97;;;10.90;40.20;;;;;;5065433;27;115756;-82
2023/04/27 08:29:16;;;;;;;12.35;5.53;;;11.20;39.90;;;;;;5058813;27;114904;-82
2023/04/27 08:31:58;;;;;;;;;;;11.50;39.40;;;;;;5044975;27;114675;-82
2023/04/27 08:34:25;;;;;;;8.52;4.72;;;11.70;39.80;;;;;;5062475;27;114725;-83
2023/04/27 08:36:53;;;;;;;9.55;5.20;;;11.70;37.90;;;;;;5061052;27;114629;-82
2023/04/27 08:39:20;;;;;;;9.05;5.45;;;11.80;38.60;;;;;;5060620;27;114843;-83
2023/04/27 08:41:47;;;;;;;10.95;5.63;;;11.90;38.70;;;;;;5064077;27;115984;-83
2023/04/27 08:44:15;;;;;;;12.27;5.43;;;12.10;38.50;;;;;;5065043;27;114536;-83
2023/04/27 08:46:42;;;;;;;10.57;4.78;;;12.10;38.50;;;;;;5059773;27;114457;-82
2023/04/27 08:49:09;;;;;;;12.82;4.88;;;12.10;39.00;;;;;;5064414;27;115091;-84
2023/04/27 08:51:36;;;;;;;8.95;5.13;;;12.10;38.70;;;;;;5063853;27;114639;-82
2023/04/27 08:54:03;;;;;;;11.57;5.00;;;11.90;38.60;;;;;;5045682;27;114555;-82
2023/04/27 08:56:31;;;;;;;8.13;5.15;;;11.80;38.40;;;;;;5061941;27;114588;-83
2023/04/27 08:59:11;;;;;;;8.45;5.40;;;11.70;38.30;;;;;;5064144;27;115535;-83
2023/04/27 09:01:45;;;;;;;9.43;4.97;;;11.50;38.70;;;;;;5063051;27;115066;-83
2023/04/27 09:04:12;;;;;;;10.80;5.40;;;11.40;39.00;;;;;;5044212;27;118934;-85
2023/04/27 09:06:39;;;;;;;10.18;5.38;;;11.30;39.30;;;;;;5042988;27;114215;-85
2023/04/27 09:09:07;;;;;;;9.27;5.35;;;11.20;39.40;;;;;;5053622;27;115004;-85
2023/04/27 09:11:35;;;;;;;10.75;5.15;;;11.20;40.40;;;;;;5063651;27;115781;-85
2023/04/27 09:14:16;;;;;;;8.30;4.90;;;11.20;39.00;;;;;;5059025;27;117869;-85
2023/04/27 09:16:43;;;;;;;11.02;6.03;;;11.20;39.60;;;;;;5059163;27;114927;-86
2023/04/27 09:19:11;;;;;;;7.80;5.03;;;11.20;40.00;;;;;;5058402;27;116319;-85
2023/04/27 09:21:38;;;;;;;8.05;5.20;;;11.40;39.00;;;;;;5047051;27;114928;-86
2023/04/27 09:24:11;;;;;;;11.88;5.45;;;11.60;38.60;;;;;;5047354;27;114359;-84
2023/04/27 09:26:38;;;;;;;11.57;6.10;;;11.70;38.60;;;;;;5065742;27;114412;-86
2023/04/27 09:29:05;;;;;;;9.35;5.85;;;11.70;38.50;;;;;;5064759;27;115066;-84
2023/04/27 09:31:34;;;;;;;9.57;5.65;;;11.80;37.90;;;;;;5064684;27;114569;-84
2023/04/27 09:34:03;;;;;;;10.82;5.88;;;11.80;38.00;;;;;;5046559;27;114612;-85
2023/04/27 09:36:31;;;;;;;9.77;5.30;;;11.80;37.90;;;;;;5048710;27;114613;-84
2023/04/27 09:39:03;;;;;;;9.15;5.47;;;11.80;38.00;;;;;;5029101;27;116537;-86
2023/04/27 09:41:31;;;;;;;7.85;4.97;;;11.70;37.60;;;;;;5012241;27;116332;-85
2023/04/27 09:43:58;;;;;;;9.38;5.22;;;11.70;37.50;;;;;;5046549;27;114352;-84
2023/04/27 09:46:25;;;;;;;9.35;5.00;;;11.60;37.10;;;;;;5057843;27;114576;-83
2023/04/27 09:48:52;;;;;;;10.23;5.55;;;11.60;37.10;;;;;;5026613;27;117719;-84
2023/04/27 09:51:19;;;;;;;6.80;5.05;;;11.60;37.10;;;;;;5055989;27;114565;-85
2023/04/27 09:54:07;;;;;;;9.02;5.32;;;11.50;37.00;;;;;;5061127;27;115059;-84
2023/04/27 09:57:10;;;;;;;11.95;5.68;;;11.50;37.20;;;;;;5065287;27;114547;-85
2023/04/27 09:59:56;;;;;;;7.93;5.30;;;11.50;37.20;;;;;;5067703;27;114967;-84
2023/04/27 10:02:23;;;;;;;10.80;4.93;;;11.40;37.00;;;;;;5084298;27;116838;-85
2023/04/27 10:05:08;;;;;;;9.85;5.07;;;11.40;37.10;;;;;;5066548;27;117318;-84
2023/04/27 10:07:37;;;;;;;9.93;5.47;;;11.40;37.20;;;;;;5083663;27;114566;-84
2023/04/27 10:10:04;;;;;;;11.82;6.10;;;11.50;37.50;;;;;;5076997;27;115847;-86
2023/04/27 10:12:35;;;;;;;10.30;5.35;;;11.50;37.30;;;;;;5082596;27;119047;-85
2023/04/27 10:15:16;;;;;;;8.85;4.85;;;11.70;37.00;;;;;;5066516;27;114424;-84
2023/04/27 10:17:48;;;;;;;11.40;5.40;;;11.70;37.00;;;;;;5047258;27;114282;-85
2023/04/27 10:20:16;;;;;;;10.52;5.40;;;11.80;37.00;;;;;;5062221;27;117287;-84
2023/04/27 10:22:45;;;;;;;7.55;4.70;;;11.80;36.80;;;;;;5045199;27;118182;-85
2023/04/27 10:25:23;;;;;;;8.00;4.93;;;11.90;36.30;;;;;;5062700;27;114423;-85
2023/04/27 10:27:55;;;;;;;8.10;4.90;;;12.00;35.70;;;;;;5064505;27;114379;-84
2023/04/27 10:30:23;;;;;;;9.02;4.80;;;12.00;35.00;;;;;;5051953;27;115687;-85
2023/04/27 10:32:52;;;;;;;8.68;4.90;;;12.00;34.80;;;;;;5027596;27;114838;-85
2023/04/27 10:35:20;;;;;;;7.43;5.00;;;11.80;35.10;;;;;;5051531;27;117253;-85
2023/04/27 10:37:48;;;;;;;8.07;5.18;;;11.70;35.20;;;;;;4996124;27;114466;-85
2023/04/27 10:40:16;;;;;;;9.93;4.93;;;11.70;35.40;;;;;;5070457;27;115542;-83
2023/04/27 10:43:15;;;;;;;10.57;5.63;;;11.60;35.70;;;;;;5027204;27;118233;-84
2023/04/27 10:45:44;;;;;;;6.25;4.15;;;11.70;35.30;;;;;;5065083;27;114512;-83
2023/04/27 10:48:13;;;;;;;7.63;4.60;;;11.70;35.50;;;;;;5033394;27;114418;-85
2023/04/27 10:50:40;;;;;;;10.13;5.18;;;11.60;35.10;;;;;;5048417;27;115359;-85
2023/04/27 10:53:07;;;;;;;7.95;4.82;;;11.60;35.20;;;;;;5046764;27;116007;-86
2023/04/27 10:55:35;;;;;;;8.52;5.00;;;11.50;35.10;;;;;;5045955;27;114617;-85
2023/04/27 10:58:03;;;;;;;11.02;5.25;;;11.50;35.20;;;;;;5012490;27;114625;-85
2023/04/27 11:00:32;;;;;;;7.38;4.60;;;11.50;35.00;;;;;;5026898;27;114952;-84
2023/04/27 11:03:13;;;;;;;8.13;4.50;;;11.40;34.70;;;;;;5010362;27;117180;-85
2023/04/27 11:05:41;;;;;;;7.53;4.93;;;11.30;35.00;;;;;;5043967;27;114694;-85
2023/04/27 11:08:10;;;;;;;13.25;4.93;;;11.30;35.30;;;;;;4996355;27;114640;-85
2023/04/27 11:10:43;;;;;;;9.25;4.95;;;11.30;35.50;;;;;;5044799;27;118035;-84
2023/04/27 11:13:15;;;;;;;8.30;4.60;;;11.40;36.10;;;;;;5015884;27;118441;-85
2023/04/27 11:15:57;;;;;;;9.98;4.50;;;11.50;36.30;;;;;;5008061;27;114641;-85
2023/04/27 11:18:28;;;;;;;8.48;5.10;;;11.50;36.60;;;;;;5028020;27;114705;-85
2023/04/27 11:21:19;;;;;;;13.07;4.95;;;11.70;36.50;;;;;;5039757;27;118977;-85
2023/04/27 11:23:46;;;;;;;8.25;5.30;;;11.80;36.00;;;;;;5022942;27;114884;-84
2023/04/27 11:26:18;;;;;;;12.05;4.97;;;11.80;35.70;;;;;;5027008;27;115442;-85
2023/04/27 11:28:57;;;;;;;8.88;4.53;;;11.80;36.00;;;;;;5029359;27;114638;-85
2023/04/27 11:31:25;;;;;;;6.70;4.22;;;12.00;35.80;;;;;;5032916;27;114864;-85
2023/04/27 11:33:53;;;;;;;7.90;4.30;;;12.20;35.60;;;;;;5040198;27;117940;-85
2023/04/27 11:36:22;;;;;;;8.75;4.45;;;12.30;35.00;;;;;;5045268;27;114688;-85
2023/04/27 11:38:49;;;;;;;8.07;4.10;;;12.50;34.90;;;;;;5046590;27;114307;-85
2023/04/27 11:41:16;;;;;;;7.47;4.55;;;12.60;34.80;;;;;;5039644;27;114871;-84
2023/04/27 11:43:50;;;;;;;7.25;4.88;;;12.60;34.70;;;;;;5028224;27;117493;-85
2023/04/27 11:46:21;;;;;;;9.48;5.40;;;12.60;34.40;;;;;;5045405;27;114836;-85
2023/04/27 11:48:48;;;;;;;10.00;6.40;;;12.60;33.80;;;;;;5046446;27;115509;-84
2023/04/27 11:51:17;;;;;;;10.93;4.80;;;12.60;34.30;;;;;;5032987;27;117605;-85
2023/04/27 11:53:47;;;;;;;8.68;5.03;;;12.70;34.20;;;;;;5050935;27;117678;-85
2023/04/27 11:56:14;;;;;;;10.50;4.68;;;12.70;34.20;;;;;;5070146;27;114588;-85
2023/04/27 11:58:43;;;;;;;10.13;4.82;;;12.70;34.30;;;;;;5037148;27;114738;-85
2023/04/27 12:01:12;;;;;;;8.75;4.82;;;12.70;34.30;;;;;;5052474;27;118070;-86
2023/04/27 12:03:41;;;;;;;7.68;4.90;;;12.70;33.80;;;;;;5017491;27;117729;-85
2023/04/27 12:06:08;;;;;;;9.40;4.75;;;12.70;33.90;;;;;;5020850;27;115028;-85
2023/04/27 12:08:56;;;;;;;8.93;4.63;;;12.80;33.80;;;;;;5035590;27;114530;-84
2023/04/27 12:11:25;;;;;;;13.75;4.80;;;12.90;33.90;;;;;;5041498;27;115376;-85
2023/04/27 12:13:53;;;;;;;8.82;5.57;;;13.00;33.60;;;;;;5016577;27;117554;-85
2023/04/27 12:16:21;;;;;;;10.35;4.43;;;13.10;33.10;;;;;;5052829;27;114465;-84
2023/04/27 12:18:49;;;;;;;8.00;4.13;;;13.10;32.90;;;;;;5039978;27;114459;-85
2023/04/27 12:21:16;;;;;;;10.55;4.38;;;13.20;32.80;;;;;;5008954;27;117939;-86
2023/04/27 12:23:44;;;;;;;6.88;4.03;;;13.20;32.50;;;;;;5033427;27;117529;-84
2023/04/27 12:26:17;;;;;;;7.90;4.10;;;13.10;32.70;;;;;;5028432;27;114588;-84
2023/04/27 12:28:45;;;;;;;8.45;4.00;;;13.20;32.10;;;;;;5032501;27;114510;-85
2023/04/27 12:31:13;;;;;;;9.60;5.13;;;13.10;32.60;;;;;;5030073;27;118345;-84
2023/04/27 12:33:41;;;;;;;8.88;4.68;;;13.00;32.60;;;;;;5029613;27;114826;-85
2023/04/27 12:36:08;;;;;;;9.98;4.97;;;12.90;32.90;;;;;;5018092;27;114283;-85
2023/04/27 12:38:36;;;;;;;7.95;4.95;;;12.80;33.00;;;;;;5032560;27;114589;-85
2023/04/27 12:41:03;;;;;;;7.55;4.47;;;12.80;33.30;;;;;;5047180;27;118936;-85